sensor_id;sensor_type;location;lat;lon;timestamp;P1;durP1;ratioP1;P2;durP2;ratioP2
46689;SDS011;32423;45.398;10.874;2022-12-29T10:44:13;23.15;;;12.15;;
46689;SDS011;32423;45.398;10.874;2022-12-29T10:47:05;24.80;;;11.57;;
46689;SDS011;32423;45.398;10.874;2022-12-29T10:49:51;22.70;;;11.52;;
46689;SDS011;32423;45.398;10.874;2022-12-29T10:52:38;21.83;;;11.13;;
46689;SDS011;32423;45.398;10.874;2022-12-29T10:55:28;19.67;;;9.88;;
46689;SDS011;32423;45.398;10.874;2022-12-29T10:58:17;17.60;;;10.88;;
46689;SDS011;32423;45.398;10.874;2022-12-29T11:01:03;21.50;;;11.25;;
46689;SDS011;32423;45.398;10.874;2022-12-29T11:03:50;18.67;;;10.60;;
46689;SDS011;32423;45.398;10.874;2022-12-29T11:06:50;19.45;;;10.43;;
46689;SDS011;32423;45.398;10.874;2022-12-29T11:09:36;16.48;;;11.57;;
46689;SDS011;32423;45.398;10.874;2022-12-29T11:12:27;21.80;;;11.73;;
46689;SDS011;32423;45.398;10.874;2022-12-29T11:15:14;22.05;;;13.93;;
46689;SDS011;32423;45.398;10.874;2022-12-29T11:18:00;23.05;;;13.43;;
46689;SDS011;32423;45.398;10.874;2022-12-29T11:20:44;21.98;;;13.27;;
46689;SDS011;32423;45.398;10.874;2022-12-29T11:26:19;24.13;;;15.80;;
46689;SDS011;32423;45.398;10.874;2022-12-29T11:31:53;25.90;;;14.88;;
46689;SDS011;32423;45.398;10.874;2022-12-29T11:34:41;26.80;;;15.23;;
46689;SDS011;32423;45.398;10.874;2022-12-29T11:40:18;32.40;;;15.20;;
46689;SDS011;32423;45.398;10.874;2022-12-29T11:43:05;27.00;;;17.15;;
46689;SDS011;32423;45.398;10.874;2022-12-29T11:46:02;26.40;;;16.38;;
46689;SDS011;32423;45.398;10.874;2022-12-29T11:48:49;26.92;;;16.30;;
46689;SDS011;32423;45.398;10.874;2022-12-29T11:51:38;22.35;;;12.13;;
46689;SDS011;32423;45.398;10.874;2022-12-29T11:54:33;25.77;;;15.60;;
46689;SDS011;32423;45.398;10.874;2022-12-29T11:57:20;22.15;;;14.32;;
46689;SDS011;32423;45.398;10.874;2022-12-29T12:00:15;23.42;;;14.95;;
46689;SDS011;32423;45.398;10.874;2022-12-29T12:03:03;22.48;;;12.25;;
46689;SDS011;32423;45.398;10.874;2022-12-29T12:06:00;31.80;;;17.95;;
46689;SDS011;32423;45.398;10.874;2022-12-29T12:12:03;25.50;;;14.95;;
46689;SDS011;32423;45.398;10.874;2022-12-29T12:14:54;24.45;;;15.35;;
46689;SDS011;32423;45.398;10.874;2022-12-29T12:18:11;24.52;;;13.05;;
46689;SDS011;32423;45.398;10.874;2022-12-29T12:21:04;25.40;;;15.38;;
46689;SDS011;32423;45.398;10.874;2022-12-29T12:27:26;24.20;;;14.43;;
46689;SDS011;32423;45.398;10.874;2022-12-29T12:30:19;27.83;;;16.35;;
46689;SDS011;32423;45.398;10.874;2022-12-29T12:39:17;33.00;;;18.88;;
46689;SDS011;32423;45.398;10.874;2022-12-29T12:42:14;32.03;;;19.08;;
46689;SDS011;32423;45.398;10.874;2022-12-29T12:48:38;29.90;;;17.65;;
46689;SDS011;32423;45.398;10.874;2022-12-29T13:04:19;27.60;;;16.95;;
46689;SDS011;32423;45.398;10.874;2022-12-29T13:07:30;26.73;;;16.45;;
46689;SDS011;32423;45.398;10.874;2022-12-29T13:19:44;25.77;;;15.38;;
46689;SDS011;32423;45.398;10.874;2022-12-29T13:28:53;27.50;;;16.33;;
46689;SDS011;32423;45.398;10.874;2022-12-29T13:34:39;26.58;;;15.40;;
46689;SDS011;32423;45.398;10.874;2022-12-29T13:41:11;26.45;;;16.05;;
46689;SDS011;32423;45.398;10.874;2022-12-29T13:44:02;26.83;;;16.90;;
46689;SDS011;32423;45.398;10.874;2022-12-29T13:46:49;27.23;;;15.60;;
46689;SDS011;32423;45.398;10.874;2022-12-29T13:49:37;24.33;;;16.08;;
46689;SDS011;32423;45.398;10.874;2022-12-29T13:55:36;26.33;;;15.95;;
46689;SDS011;32423;45.398;10.874;2022-12-29T13:58:33;34.97;;;17.77;;
46689;SDS011;32423;45.398;10.874;2022-12-29T14:04:23;37.40;;;17.42;;
46689;SDS011;32423;45.398;10.874;2022-12-29T14:07:15;25.52;;;14.43;;
46689;SDS011;32423;45.398;10.874;2022-12-29T14:10:01;36.53;;;17.58;;
46689;SDS011;32423;45.398;10.874;2022-12-29T14:12:47;29.60;;;18.70;;
46689;SDS011;32423;45.398;10.874;2022-12-29T14:15:33;30.40;;;17.20;;
46689;SDS011;32423;45.398;10.874;2022-12-29T14:18:27;30.45;;;18.35;;
46689;SDS011;32423;45.398;10.874;2022-12-29T14:29:55;22.38;;;13.73;;
46689;SDS011;32423;45.398;10.874;2022-12-29T14:35:45;25.88;;;16.30;;
46689;SDS011;32423;45.398;10.874;2022-12-29T14:38:34;26.90;;;18.25;;
46689;SDS011;32423;45.398;10.874;2022-12-29T14:41:32;35.03;;;18.65;;
46689;SDS011;32423;45.398;10.874;2022-12-29T14:44:19;33.92;;;19.02;;
46689;SDS011;32423;45.398;10.874;2022-12-29T14:47:05;34.38;;;19.23;;
46689;SDS011;32423;45.398;10.874;2022-12-29T14:49:52;34.10;;;19.30;;
46689;SDS011;32423;45.398;10.874;2022-12-29T14:52:46;34.15;;;20.05;;
46689;SDS011;32423;45.398;10.874;2022-12-29T14:55:55;31.60;;;20.08;;
46689;SDS011;32423;45.398;10.874;2022-12-29T14:58:43;30.52;;;19.50;;
46689;SDS011;32423;45.398;10.874;2022-12-29T15:01:36;30.40;;;19.27;;
46689;SDS011;32423;45.398;10.874;2022-12-29T15:04:33;33.88;;;20.10;;
46689;SDS011;32423;45.398;10.874;2022-12-29T15:07:19;40.97;;;20.13;;
46689;SDS011;32423;45.398;10.874;2022-12-29T15:10:06;31.38;;;19.52;;
46689;SDS011;32423;45.398;10.874;2022-12-29T15:13:00;29.25;;;19.88;;
46689;SDS011;32423;45.398;10.874;2022-12-29T15:15:48;35.15;;;21.30;;
46689;SDS011;32423;45.398;10.874;2022-12-29T15:21:20;30.73;;;20.15;;
46689;SDS011;32423;45.398;10.874;2022-12-29T15:24:11;36.70;;;21.77;;
46689;SDS011;32423;45.398;10.874;2022-12-29T15:26:56;39.50;;;22.52;;
46689;SDS011;32423;45.398;10.874;2022-12-29T15:29:43;28.73;;;17.35;;
46689;SDS011;32423;45.398;10.874;2022-12-29T15:32:29;32.95;;;21.15;;
46689;SDS011;32423;45.398;10.874;2022-12-29T15:35:26;36.03;;;21.60;;
46689;SDS011;32423;45.398;10.874;2022-12-29T15:38:23;39.47;;;22.30;;
46689;SDS011;32423;45.398;10.874;2022-12-29T15:41:16;38.03;;;20.70;;
46689;SDS011;32423;45.398;10.874;2022-12-29T15:46:52;37.47;;;21.52;;
46689;SDS011;32423;45.398;10.874;2022-12-29T15:52:21;34.25;;;21.42;;
46689;SDS011;32423;45.398;10.874;2022-12-29T15:55:16;34.20;;;20.35;;
46689;SDS011;32423;45.398;10.874;2022-12-29T15:58:05;34.60;;;20.42;;
46689;SDS011;32423;45.398;10.874;2022-12-29T16:01:16;29.00;;;19.92;;
46689;SDS011;32423;45.398;10.874;2022-12-29T16:04:04;30.55;;;19.52;;
46689;SDS011;32423;45.398;10.874;2022-12-29T16:06:56;31.70;;;20.67;;
46689;SDS011;32423;45.398;10.874;2022-12-29T16:09:46;27.35;;;19.27;;
46689;SDS011;32423;45.398;10.874;2022-12-29T16:12:34;37.50;;;21.60;;
46689;SDS011;32423;45.398;10.874;2022-12-29T16:15:21;31.23;;;20.02;;
46689;SDS011;32423;45.398;10.874;2022-12-29T16:18:11;37.42;;;19.70;;
46689;SDS011;32423;45.398;10.874;2022-12-29T16:21:11;30.65;;;19.15;;
46689;SDS011;32423;45.398;10.874;2022-12-29T16:24:07;38.30;;;20.52;;
46689;SDS011;32423;45.398;10.874;2022-12-29T16:29:45;72.95;;;43.80;;
46689;SDS011;32423;45.398;10.874;2022-12-29T16:32:31;48.05;;;29.75;;
46689;SDS011;32423;45.398;10.874;2022-12-29T16:35:18;42.78;;;22.40;;
46689;SDS011;32423;45.398;10.874;2022-12-29T16:41:00;31.88;;;21.27;;
46689;SDS011;32423;45.398;10.874;2022-12-29T16:43:46;34.33;;;21.48;;
46689;SDS011;32423;45.398;10.874;2022-12-29T16:46:31;25.65;;;14.93;;
46689;SDS011;32423;45.398;10.874;2022-12-29T16:49:16;27.93;;;17.93;;
46689;SDS011;32423;45.398;10.874;2022-12-29T16:52:09;37.70;;;22.17;;
46689;SDS011;32423;45.398;10.874;2022-12-29T16:57:45;38.90;;;22.58;;
46689;SDS011;32423;45.398;10.874;2022-12-29T17:00:34;38.00;;;23.67;;
46689;SDS011;32423;45.398;10.874;2022-12-29T17:03:21;42.40;;;25.08;;
46689;SDS011;32423;45.398;10.874;2022-12-29T17:06:08;47.60;;;27.20;;
46689;SDS011;32423;45.398;10.874;2022-12-29T17:08:59;41.20;;;24.98;;
46689;SDS011;32423;45.398;10.874;2022-12-29T17:11:44;30.55;;;19.13;;
46689;SDS011;32423;45.398;10.874;2022-12-29T17:14:42;40.20;;;24.85;;
46689;SDS011;32423;45.398;10.874;2022-12-29T17:17:33;39.15;;;23.00;;
46689;SDS011;32423;45.398;10.874;2022-12-29T17:20:21;43.45;;;25.25;;
46689;SDS011;32423;45.398;10.874;2022-12-29T17:23:14;44.08;;;24.63;;
46689;SDS011;32423;45.398;10.874;2022-12-29T17:26:00;38.50;;;22.85;;
46689;SDS011;32423;45.398;10.874;2022-12-29T17:28:45;34.63;;;21.33;;
46689;SDS011;32423;45.398;10.874;2022-12-29T17:31:30;26.02;;;17.48;;
46689;SDS011;32423;45.398;10.874;2022-12-29T17:34:15;33.28;;;18.90;;
46689;SDS011;32423;45.398;10.874;2022-12-29T17:37:00;31.90;;;20.00;;
46689;SDS011;32423;45.398;10.874;2022-12-29T17:39:45;31.63;;;18.08;;
46689;SDS011;32423;45.398;10.874;2022-12-29T17:42:31;35.95;;;22.60;;
46689;SDS011;32423;45.398;10.874;2022-12-29T17:45:20;40.15;;;21.83;;
46689;SDS011;32423;45.398;10.874;2022-12-29T17:48:16;40.08;;;23.60;;
46689;SDS011;32423;45.398;10.874;2022-12-29T17:51:02;57.83;;;32.17;;
46689;SDS011;32423;45.398;10.874;2022-12-29T17:53:47;33.03;;;19.13;;
46689;SDS011;32423;45.398;10.874;2022-12-29T17:56:33;41.72;;;24.25;;
46689;SDS011;32423;45.398;10.874;2022-12-29T17:59:18;32.78;;;19.85;;
46689;SDS011;32423;45.398;10.874;2022-12-29T18:02:08;35.28;;;19.10;;
46689;SDS011;32423;45.398;10.874;2022-12-29T18:05:18;54.35;;;33.67;;
46689;SDS011;32423;45.398;10.874;2022-12-29T18:08:07;44.10;;;26.73;;
46689;SDS011;32423;45.398;10.874;2022-12-29T18:10:53;59.88;;;35.30;;
46689;SDS011;32423;45.398;10.874;2022-12-29T18:13:39;77.20;;;45.53;;
46689;SDS011;32423;45.398;10.874;2022-12-29T18:16:24;39.17;;;22.30;;
46689;SDS011;32423;45.398;10.874;2022-12-29T18:19:10;41.90;;;26.30;;
46689;SDS011;32423;45.398;10.874;2022-12-29T18:21:54;42.65;;;25.42;;
46689;SDS011;32423;45.398;10.874;2022-12-29T18:24:39;33.03;;;20.55;;
46689;SDS011;32423;45.398;10.874;2022-12-29T18:27:24;38.78;;;25.23;;
46689;SDS011;32423;45.398;10.874;2022-12-29T18:30:09;38.53;;;23.10;;
46689;SDS011;32423;45.398;10.874;2022-12-29T18:32:55;31.10;;;20.23;;
46689;SDS011;32423;45.398;10.874;2022-12-29T18:35:47;25.70;;;16.30;;
46689;SDS011;32423;45.398;10.874;2022-12-29T18:38:37;41.83;;;21.80;;
46689;SDS011;32423;45.398;10.874;2022-12-29T18:44:10;27.95;;;17.15;;
46689;SDS011;32423;45.398;10.874;2022-12-29T18:46:56;29.60;;;18.30;;
46689;SDS011;32423;45.398;10.874;2022-12-29T18:49:41;21.85;;;13.05;;
46689;SDS011;32423;45.398;10.874;2022-12-29T18:52:26;19.23;;;11.95;;
46689;SDS011;32423;45.398;10.874;2022-12-29T18:55:14;15.88;;;10.88;;
46689;SDS011;32423;45.398;10.874;2022-12-29T18:58:01;33.22;;;17.15;;
46689;SDS011;32423;45.398;10.874;2022-12-29T19:00:46;20.83;;;12.63;;
46689;SDS011;32423;45.398;10.874;2022-12-29T19:03:31;23.75;;;13.70;;
46689;SDS011;32423;45.398;10.874;2022-12-29T19:06:17;26.85;;;16.83;;
46689;SDS011;32423;45.398;10.874;2022-12-29T19:09:02;26.58;;;16.35;;
46689;SDS011;32423;45.398;10.874;2022-12-29T19:11:47;17.83;;;11.85;;
46689;SDS011;32423;45.398;10.874;2022-12-29T19:14:31;19.40;;;12.40;;
46689;SDS011;32423;45.398;10.874;2022-12-29T19:17:16;22.45;;;13.02;;
46689;SDS011;32423;45.398;10.874;2022-12-29T19:20:01;26.45;;;16.60;;
46689;SDS011;32423;45.398;10.874;2022-12-29T19:22:47;24.65;;;15.57;;
46689;SDS011;32423;45.398;10.874;2022-12-29T19:25:33;26.90;;;16.13;;
46689;SDS011;32423;45.398;10.874;2022-12-29T19:28:20;25.60;;;15.77;;
46689;SDS011;32423;45.398;10.874;2022-12-29T19:31:07;26.40;;;15.98;;
46689;SDS011;32423;45.398;10.874;2022-12-29T19:33:56;28.48;;;18.50;;
46689;SDS011;32423;45.398;10.874;2022-12-29T19:36:41;17.35;;;12.40;;
46689;SDS011;32423;45.398;10.874;2022-12-29T19:39:27;29.33;;;17.60;;
46689;SDS011;32423;45.398;10.874;2022-12-29T19:42:12;29.30;;;18.38;;
46689;SDS011;32423;45.398;10.874;2022-12-29T19:44:57;27.33;;;14.77;;
46689;SDS011;32423;45.398;10.874;2022-12-29T19:47:42;22.10;;;14.20;;
46689;SDS011;32423;45.398;10.874;2022-12-29T19:50:27;22.55;;;13.48;;
46689;SDS011;32423;45.398;10.874;2022-12-29T19:53:12;28.33;;;18.58;;
46689;SDS011;32423;45.398;10.874;2022-12-29T19:55:56;26.92;;;14.85;;
46689;SDS011;32423;45.398;10.874;2022-12-29T19:58:46;29.48;;;18.15;;
46689;SDS011;32423;45.398;10.874;2022-12-29T20:01:31;24.48;;;14.75;;
46689;SDS011;32423;45.398;10.874;2022-12-29T20:04:16;23.15;;;14.00;;
46689;SDS011;32423;45.398;10.874;2022-12-29T20:07:01;23.90;;;14.23;;
46689;SDS011;32423;45.398;10.874;2022-12-29T20:09:45;23.17;;;14.60;;
46689;SDS011;32423;45.398;10.874;2022-12-29T20:12:30;26.25;;;16.92;;
46689;SDS011;32423;45.398;10.874;2022-12-29T20:15:14;25.77;;;16.02;;
46689;SDS011;32423;45.398;10.874;2022-12-29T20:18:00;30.60;;;18.60;;
46689;SDS011;32423;45.398;10.874;2022-12-29T20:20:45;28.77;;;15.60;;
46689;SDS011;32423;45.398;10.874;2022-12-29T20:23:30;34.85;;;20.77;;
46689;SDS011;32423;45.398;10.874;2022-12-29T20:26:17;48.28;;;28.85;;
46689;SDS011;32423;45.398;10.874;2022-12-29T20:29:07;39.80;;;24.08;;
46689;SDS011;32423;45.398;10.874;2022-12-29T20:31:52;33.60;;;17.73;;
46689;SDS011;32423;45.398;10.874;2022-12-29T20:34:37;31.20;;;18.10;;
46689;SDS011;32423;45.398;10.874;2022-12-29T20:37:23;42.78;;;26.83;;
46689;SDS011;32423;45.398;10.874;2022-12-29T20:40:08;30.20;;;18.02;;
46689;SDS011;32423;45.398;10.874;2022-12-29T20:45:37;45.38;;;25.35;;
46689;SDS011;32423;45.398;10.874;2022-12-29T20:48:23;46.65;;;25.85;;
46689;SDS011;32423;45.398;10.874;2022-12-29T20:51:08;47.28;;;27.65;;
46689;SDS011;32423;45.398;10.874;2022-12-29T20:56:37;39.00;;;22.45;;
46689;SDS011;32423;45.398;10.874;2022-12-29T20:59:22;28.65;;;17.50;;
46689;SDS011;32423;45.398;10.874;2022-12-29T21:02:15;33.47;;;22.25;;
46689;SDS011;32423;45.398;10.874;2022-12-29T21:05:03;31.90;;;21.30;;
46689;SDS011;32423;45.398;10.874;2022-12-29T21:07:49;47.35;;;27.25;;
46689;SDS011;32423;45.398;10.874;2022-12-29T21:10:34;37.85;;;22.75;;
46689;SDS011;32423;45.398;10.874;2022-12-29T21:13:19;28.90;;;18.10;;
46689;SDS011;32423;45.398;10.874;2022-12-29T21:16:06;34.78;;;21.10;;
46689;SDS011;32423;45.398;10.874;2022-12-29T21:18:52;42.38;;;24.45;;
46689;SDS011;32423;45.398;10.874;2022-12-29T21:21:36;32.83;;;21.50;;
46689;SDS011;32423;45.398;10.874;2022-12-29T21:24:21;33.35;;;21.83;;
46689;SDS011;32423;45.398;10.874;2022-12-29T21:27:06;32.55;;;20.25;;
46689;SDS011;32423;45.398;10.874;2022-12-29T21:29:51;38.15;;;23.10;;
46689;SDS011;32423;45.398;10.874;2022-12-29T21:32:35;36.15;;;20.48;;
46689;SDS011;32423;45.398;10.874;2022-12-29T21:35:20;32.63;;;19.25;;
46689;SDS011;32423;45.398;10.874;2022-12-29T21:38:05;37.65;;;22.45;;
46689;SDS011;32423;45.398;10.874;2022-12-29T21:40:51;47.15;;;28.35;;
46689;SDS011;32423;45.398;10.874;2022-12-29T21:43:37;51.90;;;29.65;;
46689;SDS011;32423;45.398;10.874;2022-12-29T21:46:22;48.20;;;30.17;;
46689;SDS011;32423;45.398;10.874;2022-12-29T21:49:07;37.25;;;23.17;;
46689;SDS011;32423;45.398;10.874;2022-12-29T21:51:52;39.53;;;23.30;;
46689;SDS011;32423;45.398;10.874;2022-12-29T21:54:40;47.28;;;28.73;;
46689;SDS011;32423;45.398;10.874;2022-12-29T21:57:43;47.30;;;28.83;;
46689;SDS011;32423;45.398;10.874;2022-12-29T22:00:47;49.35;;;30.52;;
46689;SDS011;32423;45.398;10.874;2022-12-29T22:03:50;48.15;;;30.20;;
46689;SDS011;32423;45.398;10.874;2022-12-29T22:06:54;47.70;;;28.40;;
46689;SDS011;32423;45.398;10.874;2022-12-29T22:09:57;50.47;;;29.95;;
46689;SDS011;32423;45.398;10.874;2022-12-29T22:13:01;47.25;;;29.88;;
46689;SDS011;32423;45.398;10.874;2022-12-29T22:15:48;47.97;;;29.63;;
46689;SDS011;32423;45.398;10.874;2022-12-29T22:18:33;40.95;;;23.55;;
46689;SDS011;32423;45.398;10.874;2022-12-29T22:21:18;35.55;;;23.60;;
46689;SDS011;32423;45.398;10.874;2022-12-29T22:24:03;41.20;;;22.98;;
46689;SDS011;32423;45.398;10.874;2022-12-29T22:26:48;45.33;;;27.95;;
46689;SDS011;32423;45.398;10.874;2022-12-29T22:29:32;32.50;;;19.95;;
46689;SDS011;32423;45.398;10.874;2022-12-29T22:35:02;42.60;;;26.27;;
46689;SDS011;32423;45.398;10.874;2022-12-29T22:37:47;40.80;;;25.10;;
46689;SDS011;32423;45.398;10.874;2022-12-29T22:40:32;28.95;;;20.08;;
46689;SDS011;32423;45.398;10.874;2022-12-29T22:43:17;27.20;;;18.70;;
46689;SDS011;32423;45.398;10.874;2022-12-29T22:46:03;34.13;;;21.90;;
46689;SDS011;32423;45.398;10.874;2022-12-29T22:48:50;36.05;;;22.85;;
46689;SDS011;32423;45.398;10.874;2022-12-29T22:54:20;39.72;;;22.92;;
46689;SDS011;32423;45.398;10.874;2022-12-29T22:57:05;31.55;;;21.38;;
46689;SDS011;32423;45.398;10.874;2022-12-29T22:59:50;26.38;;;18.83;;
46689;SDS011;32423;45.398;10.874;2022-12-29T23:02:35;35.28;;;18.23;;
46689;SDS011;32423;45.398;10.874;2022-12-29T23:05:20;31.15;;;18.92;;
46689;SDS011;32423;45.398;10.874;2022-12-29T23:08:05;25.70;;;16.10;;
46689;SDS011;32423;45.398;10.874;2022-12-29T23:10:49;34.65;;;18.85;;
46689;SDS011;32423;45.398;10.874;2022-12-29T23:13:34;38.80;;;17.08;;
46689;SDS011;32423;45.398;10.874;2022-12-29T23:19:04;38.88;;;19.95;;
46689;SDS011;32423;45.398;10.874;2022-12-29T23:21:49;39.20;;;20.40;;
46689;SDS011;32423;45.398;10.874;2022-12-29T23:24:34;24.67;;;15.63;;
46689;SDS011;32423;45.398;10.874;2022-12-29T23:27:19;25.23;;;16.48;;
46689;SDS011;32423;45.398;10.874;2022-12-29T23:30:04;26.60;;;16.13;;
46689;SDS011;32423;45.398;10.874;2022-12-29T23:32:50;31.20;;;19.52;;
46689;SDS011;32423;45.398;10.874;2022-12-29T23:35:34;32.35;;;20.90;;
46689;SDS011;32423;45.398;10.874;2022-12-29T23:38:18;38.93;;;22.03;;
46689;SDS011;32423;45.398;10.874;2022-12-29T23:41:03;32.55;;;20.58;;
46689;SDS011;32423;45.398;10.874;2022-12-29T23:43:48;36.30;;;22.13;;
46689;SDS011;32423;45.398;10.874;2022-12-29T23:46:33;26.88;;;16.85;;
46689;SDS011;32423;45.398;10.874;2022-12-29T23:49:19;29.42;;;18.38;;
46689;SDS011;32423;45.398;10.874;2022-12-29T23:52:04;22.70;;;14.80;;
46689;SDS011;32423;45.398;10.874;2022-12-29T23:54:49;23.58;;;14.98;;
46689;SDS011;32423;45.398;10.874;2022-12-29T23:57:34;23.55;;;14.23;;
